Time;durP1;ratioP1;P1;durP2;ratioP2;P2;SDS_P1;SDS_P2;PMS_P1;PMS_P2;Temp;Humidity;BMP_temperature;BMP_pressure;BME280_temperature;BME280_humidity;BME280_pressure;Samples;Min_cycle;Max_cycle;Signal;HPM_P1;HPM_P2
2022/05/11 00:00:36;;;;;;;8.80;7.97;;;15.50;99.90;;;;;;5054811;28;20645;-70
2022/05/11 00:03:04;;;;;;;8.48;7.25;;;15.40;99.90;;;;;;5054700;28;20228;-70
2022/05/11 00:05:30;;;;;;;9.13;7.97;;;15.50;99.90;;;;;;5054611;28;20202;-70
2022/05/11 00:07:56;;;;;;;11.77;8.13;;;15.50;99.90;;;;;;5054815;28;20174;-70
2022/05/11 00:10:23;;;;;;;9.57;8.63;;;15.60;99.90;;;;;;5054577;28;20633;-70
2022/05/11 00:12:50;;;;;;;10.63;8.32;;;15.70;99.90;;;;;;5054469;28;20264;-70
2022/05/11 00:15:21;;;;;;;14.52;9.43;;;15.60;99.90;;;;;;5055130;28;20174;-70
2022/05/11 00:17:46;;;;;;;16.40;10.40;;;15.60;99.90;;;;;;5054483;28;20170;-70
2022/05/11 00:20:14;;;;;;;21.17;11.25;;;15.60;99.90;;;;;;5055148;28;20181;-70
2022/05/11 00:22:40;;;;;;;17.65;11.38;;;15.60;99.90;;;;;;5055614;28;20198;-70
2022/05/11 00:25:08;;;;;;;16.77;11.32;;;15.60;99.90;;;;;;5054235;28;20181;-70
2022/05/11 00:27:34;;;;;;;19.70;11.40;;;15.60;99.90;;;;;;5055355;28;20209;-70
2022/05/11 00:29:59;;;;;;;18.05;10.95;;;15.60;99.90;;;;;;5054692;28;20189;-70
2022/05/11 00:32:25;;;;;;;15.07;10.77;;;15.50;99.90;;;;;;5055146;28;20182;-70
2022/05/11 00:34:52;;;;;;;15.48;10.05;;;15.50;99.90;;;;;;5054286;28;20224;-70
2022/05/11 00:37:18;;;;;;;16.15;10.90;;;15.50;99.90;;;;;;5054988;28;20227;-70
2022/05/11 00:39:44;;;;;;;12.68;9.73;;;15.50;99.90;;;;;;5053842;28;20189;-70
2022/05/11 00:42:10;;;;;;;11.45;9.55;;;15.50;99.90;;;;;;5054010;28;20194;-70
2022/05/11 00:44:36;;;;;;;12.70;9.35;;;15.50;99.90;;;;;;5055300;28;20270;-70
2022/05/11 00:47:16;;;;;;;11.63;8.85;;;15.40;99.90;;;;;;5054054;28;20197;-69
2022/05/11 00:50:10;;;;;;;12.25;8.73;;;15.30;99.90;;;;;;5054680;28;20270;-69
2022/05/11 00:52:52;;;;;;;12.85;8.82;;;15.10;99.90;;;;;;5052546;28;20260;-69
2022/05/11 00:55:51;;;;;;;9.05;8.23;;;15.10;99.90;;;;;;5053489;28;20166;-69
2022/05/11 00:58:27;;;;;;;18.63;8.95;;;15.10;99.90;;;;;;5046032;28;20327;-69
2022/05/11 01:00:53;;;;;;;11.43;8.25;;;15.10;99.90;;;;;;5054669;28;20198;-69
2022/05/11 01:03:23;;;;;;;8.65;7.78;;;15.10;99.90;;;;;;5053427;28;20185;-69
2022/05/11 01:05:49;;;;;;;8.48;7.78;;;15.10;99.90;;;;;;5054787;28;20677;-69
2022/05/11 01:08:18;;;;;;;8.52;7.72;;;15.10;99.90;;;;;;5053335;28;20189;-69
2022/05/11 01:10:44;;;;;;;8.93;7.57;;;15.10;99.90;;;;;;5053310;28;20181;-69
2022/05/11 01:13:13;;;;;;;9.38;8.52;;;15.10;99.90;;;;;;5053775;28;20198;-69
2022/05/11 01:15:40;;;;;;;9.55;8.43;;;15.30;99.90;;;;;;5053409;28;20201;-69
2022/05/11 01:18:08;;;;;;;9.13;8.27;;;15.30;99.90;;;;;;5053448;28;20201;-69
2022/05/11 01:20:36;;;;;;;9.27;8.32;;;15.30;99.90;;;;;;5054492;28;20185;-70
2022/05/11 01:23:33;;;;;;;10.32;9.10;;;15.30;99.90;;;;;;5053250;28;20224;-70
2022/05/11 01:26:02;;;;;;;8.98;8.18;;;15.20;99.90;;;;;;5052989;28;20696;-70
2022/05/11 01:28:28;;;;;;;8.93;8.13;;;15.20;99.90;;;;;;5054185;28;20178;-70
2022/05/11 01:31:05;;;;;;;10.90;7.93;;;15.10;99.90;;;;;;5052889;28;20174;-70
2022/05/11 01:33:32;;;;;;;10.80;8.07;;;15.10;99.90;;;;;;5054158;28;20609;-70
2022/05/11 01:36:20;;;;;;;9.98;7.97;;;15.10;99.90;;;;;;5053404;28;20202;-69
2022/05/11 01:38:48;;;;;;;8.38;7.57;;;15.20;99.90;;;;;;5052947;28;20260;-69
2022/05/11 01:41:38;;;;;;;9.10;8.20;;;15.20;99.90;;;;;;5052561;28;20198;-69
2022/05/11 01:44:11;;;;;;;11.45;10.25;;;15.20;99.90;;;;;;5053867;28;20154;-69
2022/05/11 01:46:37;;;;;;;16.60;13.00;;;15.30;99.90;;;;;;5052666;28;20193;-68
2022/05/11 01:49:03;;;;;;;17.50;14.02;;;15.40;99.90;;;;;;5053704;28;20181;-69
2022/05/11 01:51:29;;;;;;;20.83;14.60;;;15.40;99.90;;;;;;5053779;28;20232;-69
2022/05/11 01:53:55;;;;;;;21.73;14.82;;;15.50;99.90;;;;;;5052526;28;20186;-69
2022/05/11 01:56:23;;;;;;;25.33;17.25;;;15.50;99.90;;;;;;5052424;28;20202;-69
2022/05/11 01:58:50;;;;;;;21.17;16.35;;;15.50;99.90;;;;;;5054202;28;20178;-69
2022/05/11 02:01:19;;;;;;;29.27;20.33;;;15.50;99.90;;;;;;5052171;28;20209;-69
2022/05/11 02:03:45;;;;;;;27.40;20.08;;;15.40;99.90;;;;;;5052414;28;20184;-69
2022/05/11 02:09:05;;;;;;;17.88;13.80;;;15.20;99.90;;;;;;5054071;28;20158;-69
2022/05/11 02:11:30;;;;;;;14.15;11.70;;;15.20;99.90;;;;;;5052283;28;20217;-69
2022/05/11 02:13:58;;;;;;;10.52;9.60;;;15.20;99.90;;;;;;5053436;28;20225;-69
2022/05/11 02:16:25;;;;;;;9.70;8.77;;;15.10;99.90;;;;;;5053625;28;20198;-69
2022/05/11 02:18:52;;;;;;;10.20;9.25;;;15.10;99.90;;;;;;5052587;28;20648;-69
2022/05/11 02:21:17;;;;;;;12.00;8.80;;;15.10;99.90;;;;;;5052305;28;20206;-69
2022/05/11 02:23:43;;;;;;;10.13;9.07;;;15.20;99.90;;;;;;5052110;28;20200;-69
2022/05/11 02:26:11;;;;;;;9.27;8.45;;;15.10;99.90;;;;;;5052354;28;20194;-69
2022/05/11 02:28:37;;;;;;;9.15;8.20;;;15.10;99.90;;;;;;5052052;28;20182;-69
2022/05/11 02:31:03;;;;;;;9.60;8.50;;;15.20;99.90;;;;;;5052022;28;20189;-69
2022/05/11 02:33:28;;;;;;;9.43;8.48;;;15.10;99.90;;;;;;5052302;28;20178;-69
2022/05/11 02:35:54;;;;;;;9.65;8.70;;;15.10;99.90;;;;;;5053086;28;20545;-69
2022/05/11 02:38:24;;;;;;;9.00;8.20;;;15.10;99.90;;;;;;5052257;28;20174;-69
2022/05/11 02:40:51;;;;;;;9.23;8.52;;;15.10;99.90;;;;;;5052167;28;20669;-69
2022/05/11 02:43:17;;;;;;;9.68;8.23;;;15.10;99.90;;;;;;5052812;28;20265;-69
2022/05/11 02:45:43;;;;;;;8.57;7.88;;;15.10;99.90;;;;;;5053239;28;20248;-69
2022/05/11 02:48:11;;;;;;;9.40;8.32;;;15.10;99.90;;;;;;5052037;28;20206;-70
2022/05/11 02:50:40;;;;;;;8.90;8.00;;;15.20;99.90;;;;;;5053027;28;20201;-70
2022/05/11 02:53:10;;;;;;;9.13;8.07;;;15.10;99.90;;;;;;5051879;28;20265;-70
2022/05/11 02:55:37;;;;;;;9.45;8.13;;;15.10;99.90;;;;;;5053323;28;20190;-70
2022/05/11 02:58:03;;;;;;;9.15;8.38;;;15.00;99.90;;;;;;5053243;28;20178;-70
2022/05/11 03:00:29;;;;;;;13.60;9.00;;;15.10;99.90;;;;;;5051769;28;20178;-70
2022/05/11 03:02:55;;;;;;;14.40;11.18;;;15.20;99.90;;;;;;5053025;28;20178;-69
2022/05/11 03:05:20;;;;;;;12.90;11.38;;;15.20;99.90;;;;;;5051695;28;20228;-69
2022/05/11 03:07:46;;;;;;;14.50;11.80;;;15.10;99.90;;;;;;5052034;28;20704;-69
2022/05/11 03:10:12;;;;;;;14.30;11.20;;;15.10;99.90;;;;;;5052441;28;20202;-69
2022/05/11 03:12:38;;;;;;;11.02;9.82;;;15.10;99.90;;;;;;5051814;28;20186;-69
2022/05/11 03:15:06;;;;;;;11.55;9.32;;;15.00;99.90;;;;;;5051761;28;20260;-69
2022/05/11 03:17:32;;;;;;;10.25;8.73;;;15.00;99.90;;;;;;5051843;28;20233;-69
2022/05/11 03:19:57;;;;;;;9.90;8.90;;;14.90;99.90;;;;;;5052870;28;20695;-69
2022/05/11 03:22:23;;;;;;;9.18;8.40;;;15.00;99.90;;;;;;5051453;28;20202;-69
2022/05/11 03:24:48;;;;;;;10.23;8.48;;;14.90;99.90;;;;;;5052645;28;20273;-69
2022/05/11 03:27:14;;;;;;;8.52;7.82;;;15.00;99.90;;;;;;5051613;28;20277;-69
2022/05/11 03:29:40;;;;;;;9.23;8.32;;;15.00;99.90;;;;;;5052197;28;20174;-70
2022/05/11 03:34:50;;;;;;;8.93;8.18;;;15.10;99.90;;;;;;5056862;28;20212;-70
2022/05/11 03:37:19;;;;;;;10.30;8.43;;;15.00;99.90;;;;;;5055404;28;20198;-70
2022/05/11 03:39:44;;;;;;;9.10;8.30;;;14.90;99.90;;;;;;5056185;28;20231;-70
2022/05/11 03:42:15;;;;;;;8.90;8.10;;;14.90;99.90;;;;;;5056487;28;20289;-70
2022/05/11 03:44:41;;;;;;;11.50;8.32;;;14.90;99.90;;;;;;5055060;28;20225;-70
2022/05/11 03:47:07;;;;;;;10.05;8.93;;;14.90;99.90;;;;;;5055679;28;20213;-70
2022/05/11 03:49:33;;;;;;;9.43;8.63;;;14.90;99.90;;;;;;5055239;28;20185;-70
2022/05/11 03:52:01;;;;;;;9.45;8.65;;;14.90;99.90;;;;;;5055650;28;20182;-70
2022/05/11 03:54:26;;;;;;;9.88;8.95;;;14.90;99.90;;;;;;5056049;28;20179;-70
2022/05/11 03:56:52;;;;;;;10.68;8.95;;;15.00;99.90;;;;;;5056167;28;20205;-70
2022/05/11 03:59:18;;;;;;;9.30;8.50;;;15.00;99.90;;;;;;5055023;28;20174;-70
2022/05/11 04:01:44;;;;;;;9.73;8.90;;;15.00;99.90;;;;;;5054619;28;20197;-70
2022/05/11 04:04:09;;;;;;;9.48;8.57;;;15.00;99.90;;;;;;5056882;28;20174;-70
2022/05/11 04:06:35;;;;;;;9.63;8.85;;;14.90;99.90;;;;;;5057234;28;20198;-70
2022/05/11 04:09:01;;;;;;;10.10;9.23;;;14.90;99.90;;;;;;5058056;28;20196;-70
2022/05/11 04:11:28;;;;;;;9.88;8.82;;;14.90;99.90;;;;;;5061146;28;20178;-70
2022/05/11 04:13:55;;;;;;;8.57;7.88;;;14.90;99.90;;;;;;5056938;28;20189;-70
2022/05/11 04:16:22;;;;;;;9.80;8.80;;;15.00;99.90;;;;;;5064819;28;20209;-70
2022/05/11 04:18:48;;;;;;;53.95;12.48;;;15.00;99.90;;;;;;5063868;28;20254;-70
2022/05/11 04:21:14;;;;;;;29.13;10.65;;;15.10;99.90;;;;;;5057349;28;20229;-70
2022/05/11 04:23:40;;;;;;;15.75;10.07;;;15.20;99.90;;;;;;5062575;28;20170;-70
2022/05/11 04:26:12;;;;;;;22.40;11.38;;;15.20;99.90;;;;;;5056220;28;20209;-70
2022/05/11 04:28:39;;;;;;;20.30;10.60;;;15.20;99.90;;;;;;5054136;28;20177;-70
2022/05/11 04:31:10;;;;;;;12.90;9.52;;;15.30;99.90;;;;;;5054016;28;20178;-70
2022/05/11 04:33:36;;;;;;;14.27;9.43;;;15.30;99.90;;;;;;5055153;28;20185;-70
2022/05/11 04:36:03;;;;;;;9.70;8.70;;;15.30;99.90;;;;;;5054474;28;20248;-70
2022/05/11 04:38:29;;;;;;;18.85;9.45;;;15.50;99.90;;;;;;5055294;28;20181;-70
2022/05/11 04:40:58;;;;;;;15.02;8.88;;;15.60;99.90;;;;;;5054183;28;20194;-70
2022/05/11 04:43:23;;;;;;;16.33;9.15;;;15.70;99.90;;;;;;5053917;28;20178;-70
2022/05/11 04:45:49;;;;;;;16.65;9.20;;;15.80;99.90;;;;;;5053806;28;20198;-71
2022/05/11 04:48:17;;;;;;;20.15;8.77;;;15.90;99.90;;;;;;5053736;28;20170;-70
2022/05/11 04:50:45;;;;;;;15.10;9.02;;;16.00;99.90;;;;;;5053935;28;20185;-70
2022/05/11 04:53:14;;;;;;;13.30;8.93;;;15.90;99.90;;;;;;5054004;28;20178;-70
2022/05/11 04:55:40;;;;;;;12.73;8.63;;;16.00;99.90;;;;;;5053517;28;20194;-70
2022/05/11 04:58:06;;;;;;;69.03;12.25;;;16.00;99.90;;;;;;5054765;28;20552;-70
2022/05/11 05:00:33;;;;;;;46.38;11.80;;;16.00;99.90;;;;;;5053448;28;20170;-70
2022/05/11 05:02:59;;;;;;;49.95;10.98;;;16.20;99.90;;;;;;5054981;28;20253;-70
2022/05/11 05:05:24;;;;;;;28.10;10.10;;;16.30;99.90;;;;;;5054564;28;20194;-70
2022/05/11 05:07:50;;;;;;;25.10;10.35;;;16.40;99.90;;;;;;5053720;28;20204;-70
2022/05/11 05:10:16;;;;;;;22.90;10.52;;;16.50;99.90;;;;;;5054821;28;20598;-70
2022/05/11 05:12:43;;;;;;;24.02;10.35;;;16.60;99.90;;;;;;5053594;28;20227;-70
2022/05/11 05:15:10;;;;;;;30.13;10.52;;;16.70;99.90;;;;;;5053061;28;20289;-70
2022/05/11 05:17:37;;;;;;;28.40;10.63;;;16.80;99.90;;;;;;5054048;28;20182;-70
2022/05/11 05:20:04;;;;;;;40.55;10.68;;;17.00;99.90;;;;;;5053019;28;20239;-70
2022/05/11 05:22:30;;;;;;;26.30;9.75;;;17.00;99.90;;;;;;5053119;28;20600;-70
2022/05/11 05:24:55;;;;;;;26.05;10.00;;;17.10;99.90;;;;;;5054531;28;20314;-70
2022/05/11 05:27:21;;;;;;;19.50;9.65;;;17.00;99.90;;;;;;5052858;28;20198;-70
2022/05/11 05:32:40;;;;;;;33.50;11.10;;;17.20;99.90;;;;;;5054142;28;20161;-70
2022/05/11 05:35:07;;;;;;;51.40;11.80;;;17.30;99.90;;;;;;5053250;28;20204;-70
2022/05/11 05:37:34;;;;;;;30.67;9.75;;;17.40;99.90;;;;;;5052953;28;20233;-70
2022/05/11 05:40:01;;;;;;;47.83;11.15;;;17.40;99.90;;;;;;5054570;28;20173;-70
2022/05/11 05:42:28;;;;;;;75.00;10.57;;;17.50;99.90;;;;;;5052579;28;20197;-70
2022/05/11 05:44:54;;;;;;;29.08;9.52;;;17.70;99.90;;;;;;5054219;28;20265;-70
2022/05/11 05:47:20;;;;;;;19.83;8.15;;;17.80;99.90;;;;;;5052906;28;20194;-70
2022/05/11 05:49:46;;;;;;;13.35;7.80;;;18.00;99.90;;;;;;5052668;28;20185;-69
2022/05/11 05:52:22;;;;;;;14.85;7.57;;;18.00;99.90;;;;;;5053188;28;20194;-70
2022/05/11 05:54:50;;;;;;;12.38;7.45;;;18.10;99.90;;;;;;5053199;28;20334;-73
2022/05/11 05:57:17;;;;;;;19.75;7.90;;;18.30;99.90;;;;;;5052830;28;20582;-69
2022/05/11 05:59:43;;;;;;;10.25;7.15;;;18.50;99.90;;;;;;5052605;28;20185;-69
2022/05/11 06:02:13;;;;;;;11.07;7.55;;;18.70;99.90;;;;;;5053152;28;20205;-71
2022/05/11 06:04:43;;;;;;;11.52;7.28;;;18.80;99.90;;;;;;5054124;28;20174;-70
2022/05/11 06:07:11;;;;;;;12.07;6.53;;;19.10;99.90;;;;;;5053296;28;20194;-69
2022/05/11 06:09:38;;;;;;;8.05;7.22;;;19.20;99.90;;;;;;5052510;28;20205;-69
2022/05/11 06:12:06;;;;;;;8.32;6.85;;;19.40;99.80;;;;;;5052353;28;20213;-77
2022/05/11 06:14:32;;;;;;;15.10;6.93;;;19.40;99.90;;;;;;5052498;28;20194;-69
2022/05/11 06:16:59;;;;;;;13.95;6.70;;;19.60;99.00;;;;;;5051911;28;20255;-69
2022/05/11 06:19:29;;;;;;;17.65;8.02;;;19.70;98.40;;;;;;5051217;28;20174;-69
2022/05/11 06:21:55;;;;;;;33.20;8.63;;;19.80;97.40;;;;;;5052015;28;20213;-69
2022/05/11 06:24:21;;;;;;;12.00;7.43;;;19.90;97.30;;;;;;5052110;28;20232;-69
2022/05/11 06:26:47;;;;;;;9.65;6.90;;;19.90;96.40;;;;;;5052041;28;20194;-69
2022/05/11 06:29:13;;;;;;;9.18;7.40;;;20.00;96.20;;;;;;5053312;28;20174;-69
2022/05/11 06:31:39;;;;;;;10.70;7.72;;;20.00;96.00;;;;;;5052038;28;20178;-69
2022/05/11 06:34:05;;;;;;;14.40;7.45;;;20.00;96.30;;;;;;5053898;28;20641;-69
2022/05/11 06:36:31;;;;;;;15.00;7.20;;;20.10;96.70;;;;;;5052347;28;20209;-69
2022/05/11 06:38:57;;;;;;;7.78;6.97;;;20.20;96.50;;;;;;5052875;28;20181;-69
2022/05/11 06:41:25;;;;;;;9.05;7.13;;;20.40;95.40;;;;;;5051891;28;20206;-69
2022/05/11 06:43:51;;;;;;;7.95;7.15;;;20.50;95.30;;;;;;5051955;28;20166;-69
2022/05/11 06:46:18;;;;;;;13.07;7.35;;;20.70;94.80;;;;;;5053053;28;20190;-69
2022/05/11 06:48:45;;;;;;;8.15;6.70;;;20.80;94.50;;;;;;5052249;28;20174;-69
2022/05/11 06:51:11;;;;;;;8.73;6.68;;;21.00;93.90;;;;;;5053140;28;20174;-69
2022/05/11 06:59:21;;;;;;;7.95;6.68;;;21.40;92.40;;;;;;5053588;28;20703;-69
2022/05/11 07:01:47;;;;;;;11.68;6.85;;;21.60;91.70;;;;;;5051754;28;20201;-69
2022/05/11 07:04:13;;;;;;;7.32;6.72;;;21.50;91.30;;;;;;5052716;28;20175;-69
2022/05/11 07:06:38;;;;;;;8.75;6.25;;;21.40;91.50;;;;;;5055646;28;20194;-69
2022/05/11 07:09:04;;;;;;;10.85;6.55;;;21.30;91.20;;;;;;5055637;28;20170;-69
2022/05/11 07:14:14;;;;;;;7.25;6.15;;;21.20;91.20;;;;;;5057076;28;20205;-69
2022/05/11 07:16:39;;;;;;;7.55;6.63;;;21.20;91.90;;;;;;5055349;28;20206;-69
2022/05/11 07:19:06;;;;;;;17.33;6.40;;;21.20;91.20;;;;;;5055446;28;20630;-69
2022/05/11 07:21:32;;;;;;;6.57;6.00;;;21.30;91.40;;;;;;5056579;28;20576;-69
2022/05/11 07:23:57;;;;;;;6.82;6.22;;;21.30;90.90;;;;;;5055640;28;20184;-69
2022/05/11 07:26:24;;;;;;;7.95;6.05;;;21.30;90.80;;;;;;5056732;28;20200;-69
2022/05/11 07:28:50;;;;;;;17.00;7.05;;;21.40;90.40;;;;;;5056815;28;20170;-69
2022/05/11 07:31:15;;;;;;;6.78;6.28;;;21.40;90.50;;;;;;5055456;28;20272;-69
2022/05/11 07:33:41;;;;;;;7.85;5.97;;;21.30;90.30;;;;;;5056062;28;20280;-69
2022/05/11 07:36:07;;;;;;;6.40;5.80;;;21.40;90.30;;;;;;5056499;28;20277;-69
2022/05/11 07:38:37;;;;;;;8.43;6.07;;;21.40;90.00;;;;;;5055053;28;20695;-69
2022/05/11 07:41:04;;;;;;;6.45;5.85;;;21.60;90.40;;;;;;5056521;28;20178;-69
2022/05/11 07:43:30;;;;;;;10.20;5.82;;;21.60;89.40;;;;;;5056209;28;20174;-69
2022/05/11 07:45:55;;;;;;;6.18;5.38;;;21.60;90.10;;;;;;5055160;28;20198;-69
2022/05/11 07:48:21;;;;;;;6.72;6.03;;;21.70;90.00;;;;;;5055200;28;20174;-69
2022/05/11 07:50:47;;;;;;;6.28;5.70;;;21.80;89.60;;;;;;5056060;28;20197;-69
2022/05/11 07:53:12;;;;;;;6.35;5.75;;;21.90;89.20;;;;;;5056058;28;20174;-69
2022/05/11 07:55:38;;;;;;;6.70;5.50;;;22.00;88.30;;;;;;5055545;28;20553;-70
2022/05/11 08:00:48;;;;;;;6.45;5.00;;;22.20;87.20;;;;;;5055830;28;20181;-69
2022/05/11 08:03:13;;;;;;;5.45;4.78;;;22.30;84.70;;;;;;5055817;28;20638;-69
2022/05/11 08:05:39;;;;;;;10.32;5.28;;;22.30;84.40;;;;;;5054598;28;20225;-69
2022/05/11 08:08:07;;;;;;;7.00;5.20;;;22.40;83.90;;;;;;5054493;28;20178;-69
2022/05/11 08:10:36;;;;;;;5.45;4.95;;;22.40;83.60;;;;;;5054514;28;20286;-69
2022/05/11 08:13:05;;;;;;;7.05;4.88;;;22.50;82.90;;;;;;5055114;28;20186;-69
2022/05/11 08:15:32;;;;;;;7.53;4.80;;;22.60;83.30;;;;;;5055105;28;20740;-69
2022/05/11 08:17:59;;;;;;;7.13;5.00;;;22.70;82.30;;;;;;5054158;28;20174;-69
2022/05/11 08:20:29;;;;;;;5.05;4.63;;;22.80;81.50;;;;;;5054611;28;20178;-69
2022/05/11 08:22:55;;;;;;;5.95;5.20;;;22.90;80.60;;;;;;5054130;28;20210;-69
2022/05/11 08:25:23;;;;;;;5.10;4.65;;;23.00;79.20;;;;;;5054469;28;20227;-69
2022/05/11 08:27:50;;;;;;;5.53;4.63;;;23.10;81.00;;;;;;5054492;28;20170;-69
2022/05/11 08:35:49;;;;;;;7.68;4.75;;;23.20;77.50;;;;;;5055621;28;20209;-69
2022/05/11 08:38:15;;;;;;;15.23;5.10;;;23.30;78.80;;;;;;5055502;28;20257;-69
2022/05/11 08:41:00;;;;;;;8.10;4.90;;;23.40;79.90;;;;;;5054120;28;20262;-69
2022/05/11 08:43:28;;;;;;;7.45;4.80;;;23.60;79.40;;;;;;5053921;28;20185;-69
2022/05/11 08:46:10;;;;;;;5.38;4.88;;;23.70;77.60;;;;;;5055017;28;20186;-69
2022/05/11 08:48:39;;;;;;;5.65;4.57;;;23.80;76.80;;;;;;5054607;28;20170;-69
2022/05/11 08:51:08;;;;;;;5.38;4.45;;;23.80;77.00;;;;;;5053979;28;20699;-69
2022/05/11 08:53:39;;;;;;;5.43;4.07;;;23.80;74.70;;;;;;5053691;28;20191;-69
2022/05/11 08:56:13;;;;;;;4.60;3.88;;;23.90;72.30;;;;;;5054197;28;20221;-69
2022/05/11 08:58:49;;;;;;;4.63;4.03;;;23.90;72.90;;;;;;5054485;28;20169;-69
2022/05/11 09:01:23;;;;;;;4.72;4.32;;;24.00;71.50;;;;;;5054276;28;20202;-70
2022/05/11 09:03:53;;;;;;;4.15;3.85;;;24.10;71.00;;;;;;5053539;28;20173;-70
2022/05/11 09:06:26;;;;;;;6.50;4.20;;;24.10;73.10;;;;;;5054850;28;20255;-70
2022/05/11 09:08:53;;;;;;;6.63;4.10;;;24.20;73.40;;;;;;5053411;28;20178;-70
2022/05/11 09:11:41;;;;;;;4.53;4.10;;;24.30;72.00;;;;;;5054160;28;20198;-70
2022/05/11 09:14:06;;;;;;;4.47;3.88;;;24.30;70.70;;;;;;5053818;28;20220;-70
2022/05/11 09:16:44;;;;;;;5.25;3.85;;;24.40;71.20;;;;;;5053092;28;20198;-70
2022/05/11 09:19:17;;;;;;;5.00;3.40;;;24.50;72.00;;;;;;5053178;28;20174;-70
2022/05/11 09:21:54;;;;;;;6.65;3.80;;;24.60;70.50;;;;;;5054602;28;20244;-70
2022/05/11 09:24:22;;;;;;;5.07;3.25;;;24.70;68.00;;;;;;5053981;28;20174;-70
2022/05/11 09:27:02;;;;;;;3.97;3.20;;;24.70;65.30;;;;;;5052871;28;20194;-70
2022/05/11 09:29:37;;;;;;;7.10;3.40;;;24.70;64.10;;;;;;5052186;28;20656;-70
2022/05/11 09:32:36;;;;;;;7.43;3.33;;;24.70;63.60;;;;;;5053009;28;20178;-70
2022/05/11 09:35:31;;;;;;;4.18;3.03;;;24.70;64.00;;;;;;5053000;28;20174;-70
2022/05/11 09:38:01;;;;;;;6.93;3.17;;;24.90;64.70;;;;;;5051398;28;20190;-70
2022/05/11 09:40:30;;;;;;;3.40;3.10;;;24.90;64.60;;;;;;5052842;28;20193;-70
2022/05/11 09:43:01;;;;;;;6.03;3.30;;;25.00;63.40;;;;;;5053103;28;20202;-70
2022/05/11 09:45:48;;;;;;;8.27;3.22;;;25.10;61.10;;;;;;5052893;28;20598;-70
2022/05/11 09:48:24;;;;;;;9.60;3.03;;;25.10;60.50;;;;;;5053621;28;20181;-70
2022/05/11 09:50:53;;;;;;;3.55;2.92;;;25.10;59.70;;;;;;5053442;28;20227;-70
2022/05/11 09:53:28;;;;;;;6.85;3.10;;;25.30;61.80;;;;;;5052554;28;20170;-71
2022/05/11 09:55:53;;;;;;;6.85;3.38;;;25.40;59.60;;;;;;5053181;28;20535;-71
2022/05/11 09:58:29;;;;;;;8.68;3.28;;;25.40;59.30;;;;;;5054468;28;20173;-71
2022/05/11 10:01:13;;;;;;;9.75;3.53;;;25.30;60.20;;;;;;5052674;28;20178;-71
2022/05/11 10:03:47;;;;;;;13.57;3.60;;;25.40;58.90;;;;;;5053120;28;20231;-71
2022/05/11 10:06:18;;;;;;;7.75;3.38;;;25.50;59.30;;;;;;5053589;28;20190;-71
2022/05/11 10:08:44;;;;;;;4.53;3.00;;;25.60;59.70;;;;;;5053237;28;20181;-71
2022/05/11 10:11:18;;;;;;;10.18;3.33;;;25.70;58.30;;;;;;5052424;28;20708;-71
2022/05/11 10:14:02;;;;;;;6.80;3.05;;;25.70;58.90;;;;;;5052749;28;20200;-71
2022/05/11 10:22:42;;;;;;;11.18;3.70;;;26.10;57.70;;;;;;5053686;28;20240;-71
2022/05/11 10:25:30;;;;;;;3.72;3.00;;;26.20;56.60;;;;;;5053024;28;20641;-71
2022/05/11 10:28:17;;;;;;;12.68;3.63;;;26.20;57.60;;;;;;5053414;28;20159;-71
2022/05/11 10:31:04;;;;;;;8.48;3.60;;;26.50;57.80;;;;;;5052182;28;20168;-71
2022/05/11 10:33:49;;;;;;;12.52;3.47;;;26.40;56.20;;;;;;5053395;28;20194;-71
2022/05/11 10:37:06;;;;;;;7.90;3.33;;;26.20;56.60;;;;;;5052645;28;20558;-71
2022/05/11 10:39:47;;;;;;;9.40;3.50;;;26.30;57.20;;;;;;5033273;28;20178;-71
2022/05/11 10:42:34;;;;;;;7.13;3.40;;;26.40;55.30;;;;;;5018851;28;20294;-71
2022/05/11 10:44:59;;;;;;;10.90;3.50;;;26.40;57.10;;;;;;5044350;28;20182;-71
2022/05/11 10:47:52;;;;;;;5.43;3.30;;;26.50;56.00;;;;;;5056392;28;20248;-70
2022/05/11 10:51:13;;;;;;;11.10;3.60;;;26.50;55.00;;;;;;5056040;28;20177;-70
2022/05/11 10:53:57;;;;;;;4.70;2.83;;;26.60;55.20;;;;;;5023703;28;20194;-71
2022/05/11 10:56:45;;;;;;;8.07;3.50;;;26.50;54.30;;;;;;5057156;28;20201;-71
2022/05/11 10:59:30;;;;;;;4.38;2.95;;;26.50;55.00;;;;;;5056442;28;20219;-71
2022/05/11 11:01:58;;;;;;;3.45;3.00;;;26.50;55.50;;;;;;5056884;28;20194;-71
2022/05/11 11:04:46;;;;;;;3.63;3.13;;;26.60;54.70;;;;;;5056037;28;20178;-71
2022/05/11 11:07:23;;;;;;;4.47;3.00;;;26.80;54.40;;;;;;5055626;28;20198;-71
2022/05/11 11:10:19;;;;;;;9.85;2.88;;;26.90;53.30;;;;;;5055939;28;20167;-71
2022/05/11 11:12:57;;;;;;;3.13;2.58;;;27.00;52.90;;;;;;5055616;28;20177;-71
2022/05/11 11:15:26;;;;;;;3.90;3.15;;;27.00;52.40;;;;;;5057077;28;20173;-71
2022/05/11 11:17:54;;;;;;;3.53;2.72;;;26.90;52.60;;;;;;5055534;28;20174;-71
2022/05/11 11:20:22;;;;;;;4.97;2.63;;;26.70;52.20;;;;;;5055446;28;20644;-71
2022/05/11 11:23:12;;;;;;;10.18;2.97;;;26.70;50.90;;;;;;5055641;28;20202;-71
2022/05/11 11:25:59;;;;;;;6.72;2.95;;;26.70;52.60;;;;;;5055515;28;20284;-71
2022/05/11 11:28:41;;;;;;;4.85;2.70;;;26.80;52.00;;;;;;5057396;28;20182;-71
2022/05/11 11:31:09;;;;;;;5.72;2.80;;;27.00;51.90;;;;;;5055303;28;20182;-71
2022/05/11 11:33:54;;;;;;;8.70;3.30;;;27.00;52.20;;;;;;5056130;28;20257;-71
2022/05/11 11:36:28;;;;;;;5.20;2.90;;;27.00;52.50;;;;;;5055043;28;20199;-71
2022/05/11 11:38:58;;;;;;;8.15;3.10;;;27.10;52.10;;;;;;5055700;28;20201;-71
2022/05/11 11:41:28;;;;;;;7.32;2.75;;;27.00;52.40;;;;;;5056296;28;20265;-71
2022/05/11 11:44:03;;;;;;;6.75;3.03;;;27.00;51.20;;;;;;5055044;28;20532;-71
2022/05/11 11:46:40;;;;;;;7.97;2.92;;;27.10;50.60;;;;;;5054965;28;20198;-71
2022/05/11 11:49:32;;;;;;;9.52;3.00;;;27.10;50.90;;;;;;5055022;28;20170;-71
2022/05/11 11:52:05;;;;;;;14.93;3.20;;;27.10;52.10;;;;;;5053739;28;20591;-71
2022/05/11 11:54:43;;;;;;;7.10;2.47;;;27.10;51.70;;;;;;5056324;28;20618;-71
2022/05/11 11:57:12;;;;;;;6.15;3.10;;;27.00;50.40;;;;;;5054783;28;20611;-71
2022/05/11 11:59:48;;;;;;;7.25;3.05;;;27.10;51.70;;;;;;5054701;28;20205;-71
2022/05/11 12:02:32;;;;;;;7.45;3.30;;;27.00;51.20;;;;;;5055463;28;20220;-71
2022/05/11 12:04:58;;;;;;;17.00;3.40;;;27.00;51.40;;;;;;5055819;28;20253;-71
2022/05/11 12:16:46;;;;;;;9.63;3.10;;;27.10;52.80;;;;;;5055887;28;20208;-71
2022/05/11 12:19:15;;;;;;;6.72;2.55;;;27.20;50.60;;;;;;5055748;28;20185;-71
2022/05/11 12:21:52;;;;;;;4.57;2.70;;;27.20;48.70;;;;;;5054502;28;20198;-71
2022/05/11 12:24:31;;;;;;;9.25;3.25;;;27.20;50.00;;;;;;5054344;28;20178;-71
2022/05/11 12:27:00;;;;;;;2.88;2.67;;;27.00;49.90;;;;;;5054677;28;20205;-71
2022/05/11 12:32:23;;;;;;;6.18;3.08;;;26.70;50.20;;;;;;5055985;28;20169;-69
2022/05/11 12:34:49;;;;;;;12.02;2.80;;;26.70;50.50;;;;;;5054579;28;20174;-69
2022/05/11 12:37:41;;;;;;;7.80;3.13;;;26.90;50.20;;;;;;5054310;28;20610;-69
2022/05/11 12:40:14;;;;;;;5.80;2.58;;;27.10;48.40;;;;;;5052001;28;20285;-69
2022/05/11 12:42:42;;;;;;;4.65;2.35;;;27.20;46.50;;;;;;5054767;28;20202;-70
2022/05/11 12:45:12;;;;;;;16.13;3.03;;;27.10;45.50;;;;;;5054795;28;20212;-70
2022/05/11 12:47:46;;;;;;;10.25;2.80;;;27.10;46.80;;;;;;5054596;28;20178;-70
2022/05/11 12:50:23;;;;;;;6.32;2.80;;;27.20;46.90;;;;;;5053766;28;20170;-70
2022/05/11 12:53:17;;;;;;;5.22;2.67;;;27.20;47.20;;;;;;5053791;28;20181;-70
2022/05/11 12:55:48;;;;;;;6.00;2.33;;;27.20;47.30;;;;;;5055089;28;20194;-70
2022/05/11 12:58:25;;;;;;;9.30;2.63;;;27.20;46.90;;;;;;5053645;28;20206;-70
2022/05/11 13:00:59;;;;;;;6.38;2.63;;;27.30;47.60;;;;;;5053876;28;20170;-70
2022/05/11 13:03:31;;;;;;;7.10;2.47;;;27.30;48.20;;;;;;5054940;28;20167;-70
2022/05/11 13:06:10;;;;;;;6.15;2.53;;;27.30;47.10;;;;;;5054258;28;20197;-71
2022/05/11 13:08:43;;;;;;;7.07;2.50;;;27.30;47.10;;;;;;5053494;28;20563;-71
2022/05/11 13:11:12;;;;;;;2.72;2.53;;;27.30;47.20;;;;;;5054027;28;20193;-71
2022/05/11 13:13:42;;;;;;;5.28;2.60;;;27.30;46.90;;;;;;5053687;28;20645;-71
2022/05/11 13:16:20;;;;;;;4.32;2.45;;;27.40;47.30;;;;;;5054508;28;20273;-71
2022/05/11 13:18:46;;;;;;;8.93;3.05;;;27.40;47.30;;;;;;5053836;28;20174;-71
2022/05/11 13:21:12;;;;;;;6.90;2.83;;;27.50;48.30;;;;;;5053204;28;20206;-71
2022/05/11 13:23:49;;;;;;;3.08;2.78;;;27.40;46.80;;;;;;5054361;28;20268;-71
2022/05/11 13:26:43;;;;;;;4.30;2.85;;;27.40;47.00;;;;;;5053122;28;20243;-71
2022/05/11 13:29:23;;;;;;;13.30;3.05;;;27.50;48.80;;;;;;5053159;28;20224;-71
2022/05/11 13:32:03;;;;;;;12.52;3.50;;;27.40;47.40;;;;;;5053072;28;20637;-71
2022/05/11 13:34:39;;;;;;;7.78;2.67;;;27.40;47.60;;;;;;5054152;28;20206;-71
2022/05/11 13:37:11;;;;;;;7.35;2.83;;;27.30;47.70;;;;;;5054149;28;20736;-71
2022/05/11 13:39:39;;;;;;;4.10;2.65;;;27.30;47.90;;;;;;5053473;28;20178;-71
2022/05/11 13:42:29;;;;;;;2.78;2.55;;;27.20;48.50;;;;;;5054372;28;20560;-69